sensor_id;sensor_type;location;lat;lon;timestamp;P1;P2;P0
26720;PMS1003;15950;51.112;6.966;2023-03-18T00:00:25;003;002;
26720;PMS1003;15950;51.112;6.966;2023-03-18T00:03:25;003;002;
26720;PMS1003;15950;51.112;6.966;2023-03-18T00:06:25;000;000;
26720;PMS1003;15950;51.112;6.966;2023-03-18T00:09:25;002;002;
26720;PMS1003;15950;51.112;6.966;2023-03-18T00:12:25;003;002;
26720;PMS1003;15950;51.112;6.966;2023-03-18T00:15:25;002;001;
26720;PMS1003;15950;51.112;6.966;2023-03-18T00:18:25;002;001;
26720;PMS1003;15950;51.112;6.966;2023-03-18T00:21:25;002;001;
26720;PMS1003;15950;51.112;6.966;2023-03-18T00:24:25;000;000;
26720;PMS1003;15950;51.112;6.966;2023-03-18T00:27:25;000;000;
26720;PMS1003;15950;51.112;6.966;2023-03-18T00:30:25;000;000;
26720;PMS1003;15950;51.112;6.966;2023-03-18T00:33:25;000;000;
26720;PMS1003;15950;51.112;6.966;2023-03-18T00:36:25;000;000;
26720;PMS1003;15950;51.112;6.966;2023-03-18T00:39:25;000;000;
26720;PMS1003;15950;51.112;6.966;2023-03-18T00:42:25;000;000;
26720;PMS1003;15950;51.112;6.966;2023-03-18T00:45:25;002;001;
26720;PMS1003;15950;51.112;6.966;2023-03-18T00:48:25;000;000;
26720;PMS1003;15950;51.112;6.966;2023-03-18T00:51:26;005;004;
26720;PMS1003;15950;51.112;6.966;2023-03-18T00:54:25;003;002;
26720;PMS1003;15950;51.112;6.966;2023-03-18T00:57:26;003;003;
26720;PMS1003;15950;51.112;6.966;2023-03-18T01:00:25;000;000;
26720;PMS1003;15950;51.112;6.966;2023-03-18T01:03:25;000;000;
26720;PMS1003;15950;51.112;6.966;2023-03-18T01:06:26;002;001;
26720;PMS1003;15950;51.112;6.966;2023-03-18T01:09:25;003;003;
26720;PMS1003;15950;51.112;6.966;2023-03-18T01:12:25;002;001;
26720;PMS1003;15950;51.112;6.966;2023-03-18T01:15:25;001;001;
26720;PMS1003;15950;51.112;6.966;2023-03-18T01:18:25;002;001;
26720;PMS1003;15950;51.112;6.966;2023-03-18T01:21:25;000;000;
26720;PMS1003;15950;51.112;6.966;2023-03-18T01:24:25;003;002;
26720;PMS1003;15950;51.112;6.966;2023-03-18T01:27:25;002;001;
26720;PMS1003;15950;51.112;6.966;2023-03-18T01:30:25;002;001;
26720;PMS1003;15950;51.112;6.966;2023-03-18T01:33:25;001;001;
26720;PMS1003;15950;51.112;6.966;2023-03-18T01:36:25;000;000;
26720;PMS1003;15950;51.112;6.966;2023-03-18T01:39:25;001;001;
26720;PMS1003;15950;51.112;6.966;2023-03-18T01:42:25;002;001;
26720;PMS1003;15950;51.112;6.966;2023-03-18T01:45:26;003;002;
26720;PMS1003;15950;51.112;6.966;2023-03-18T01:48:29;003;003;
26720;PMS1003;15950;51.112;6.966;2023-03-18T01:51:25;001;001;
26720;PMS1003;15950;51.112;6.966;2023-03-18T01:54:25;000;000;
26720;PMS1003;15950;51.112;6.966;2023-03-18T01:57:25;004;003;
26720;PMS1003;15950;51.112;6.966;2023-03-18T02:00:25;006;005;
26720;PMS1003;15950;51.112;6.966;2023-03-18T02:03:25;003;002;
26720;PMS1003;15950;51.112;6.966;2023-03-18T02:06:25;001;001;
26720;PMS1003;15950;51.112;6.966;2023-03-18T02:09:25;003;002;
26720;PMS1003;15950;51.112;6.966;2023-03-18T02:12:29;006;005;
26720;PMS1003;15950;51.112;6.966;2023-03-18T02:15:25;003;003;
26720;PMS1003;15950;51.112;6.966;2023-03-18T02:18:27;000;000;
26720;PMS1003;15950;51.112;6.966;2023-03-18T02:27:25;000;000;
26720;PMS1003;15950;51.112;6.966;2023-03-18T02:30:26;000;000;
26720;PMS1003;15950;51.112;6.966;2023-03-18T02:33:26;000;000;
26720;PMS1003;15950;51.112;6.966;2023-03-18T02:36:26;000;000;
26720;PMS1003;15950;51.112;6.966;2023-03-18T02:39:25;003;002;
26720;PMS1003;15950;51.112;6.966;2023-03-18T02:42:26;003;002;
26720;PMS1003;15950;51.112;6.966;2023-03-18T02:48:26;003;003;
26720;PMS1003;15950;51.112;6.966;2023-03-18T02:51:25;002;002;
26720;PMS1003;15950;51.112;6.966;2023-03-18T02:54:26;002;001;
26720;PMS1003;15950;51.112;6.966;2023-03-18T02:57:25;000;000;
26720;PMS1003;15950;51.112;6.966;2023-03-18T03:00:25;001;001;
26720;PMS1003;15950;51.112;6.966;2023-03-18T03:03:25;003;002;
26720;PMS1003;15950;51.112;6.966;2023-03-18T03:06:25;004;003;
26720;PMS1003;15950;51.112;6.966;2023-03-18T03:09:25;002;001;
26720;PMS1003;15950;51.112;6.966;2023-03-18T03:12:25;002;001;
26720;PMS1003;15950;51.112;6.966;2023-03-18T03:15:25;003;002;
26720;PMS1003;15950;51.112;6.966;2023-03-18T03:18:25;002;001;
26720;PMS1003;15950;51.112;6.966;2023-03-18T03:21:25;004;003;
26720;PMS1003;15950;51.112;6.966;2023-03-18T03:24:25;003;002;
26720;PMS1003;15950;51.112;6.966;2023-03-18T03:27:25;002;001;
26720;PMS1003;15950;51.112;6.966;2023-03-18T03:30:25;003;002;
26720;PMS1003;15950;51.112;6.966;2023-03-18T03:33:25;002;001;
26720;PMS1003;15950;51.112;6.966;2023-03-18T03:36:25;002;002;
26720;PMS1003;15950;51.112;6.966;2023-03-18T03:39:25;007;005;
26720;PMS1003;15950;51.112;6.966;2023-03-18T03:42:25;003;002;
26720;PMS1003;15950;51.112;6.966;2023-03-18T03:45:25;006;004;
26720;PMS1003;15950;51.112;6.966;2023-03-18T03:48:25;002;001;
26720;PMS1003;15950;51.112;6.966;2023-03-18T03:51:25;000;000;
26720;PMS1003;15950;51.112;6.966;2023-03-18T03:54:25;003;003;
26720;PMS1003;15950;51.112;6.966;2023-03-18T03:57:25;002;001;
26720;PMS1003;15950;51.112;6.966;2023-03-18T04:00:25;006;004;
26720;PMS1003;15950;51.112;6.966;2023-03-18T04:03:25;003;002;
26720;PMS1003;15950;51.112;6.966;2023-03-18T04:06:25;002;001;
26720;PMS1003;15950;51.112;6.966;2023-03-18T04:09:25;002;001;
26720;PMS1003;15950;51.112;6.966;2023-03-18T04:12:25;002;001;
26720;PMS1003;15950;51.112;6.966;2023-03-18T04:15:25;004;003;
26720;PMS1003;15950;51.112;6.966;2023-03-18T04:18:25;003;002;
26720;PMS1003;15950;51.112;6.966;2023-03-18T04:21:25;003;002;
26720;PMS1003;15950;51.112;6.966;2023-03-18T04:24:25;003;002;
26720;PMS1003;15950;51.112;6.966;2023-03-18T04:27:25;004;003;
26720;PMS1003;15950;51.112;6.966;2023-03-18T04:30:25;005;004;
26720;PMS1003;15950;51.112;6.966;2023-03-18T04:33:25;005;005;
26720;PMS1003;15950;51.112;6.966;2023-03-18T04:36:25;005;003;
26720;PMS1003;15950;51.112;6.966;2023-03-18T04:39:25;006;004;
26720;PMS1003;15950;51.112;6.966;2023-03-18T04:42:25;005;004;
26720;PMS1003;15950;51.112;6.966;2023-03-18T04:45:25;005;003;
26720;PMS1003;15950;51.112;6.966;2023-03-18T04:48:25;003;002;
26720;PMS1003;15950;51.112;6.966;2023-03-18T04:51:25;006;005;
26720;PMS1003;15950;51.112;6.966;2023-03-18T04:54:25;004;004;
26720;PMS1003;15950;51.112;6.966;2023-03-18T04:57:25;007;005;
26720;PMS1003;15950;51.112;6.966;2023-03-18T05:00:25;002;001;
26720;PMS1003;15950;51.112;6.966;2023-03-18T05:03:25;004;004;
26720;PMS1003;15950;51.112;6.966;2023-03-18T05:06:26;003;002;
26720;PMS1003;15950;51.112;6.966;2023-03-18T05:09:25;005;004;
26720;PMS1003;15950;51.112;6.966;2023-03-18T05:12:25;003;002;
26720;PMS1003;15950;51.112;6.966;2023-03-18T05:15:25;004;003;
26720;PMS1003;15950;51.112;6.966;2023-03-18T05:18:25;005;003;
26720;PMS1003;15950;51.112;6.966;2023-03-18T05:21:25;007;005;
26720;PMS1003;15950;51.112;6.966;2023-03-18T05:24:25;005;003;
26720;PMS1003;15950;51.112;6.966;2023-03-18T05:27:25;005;003;
26720;PMS1003;15950;51.112;6.966;2023-03-18T05:30:25;007;005;
26720;PMS1003;15950;51.112;6.966;2023-03-18T05:33:25;005;003;
26720;PMS1003;15950;51.112;6.966;2023-03-18T05:36:25;003;002;
26720;PMS1003;15950;51.112;6.966;2023-03-18T05:39:25;005;003;
26720;PMS1003;15950;51.112;6.966;2023-03-18T05:42:25;003;002;
26720;PMS1003;15950;51.112;6.966;2023-03-18T05:45:25;004;003;
26720;PMS1003;15950;51.112;6.966;2023-03-18T05:48:25;005;003;
26720;PMS1003;15950;51.112;6.966;2023-03-18T05:51:25;007;005;
26720;PMS1003;15950;51.112;6.966;2023-03-18T05:54:25;008;006;
26720;PMS1003;15950;51.112;6.966;2023-03-18T05:57:25;005;005;
26720;PMS1003;15950;51.112;6.966;2023-03-18T06:00:28;007;006;
26720;PMS1003;15950;51.112;6.966;2023-03-18T06:03:25;006;004;
26720;PMS1003;15950;51.112;6.966;2023-03-18T06:06:25;005;004;
26720;PMS1003;15950;51.112;6.966;2023-03-18T06:09:25;005;003;
26720;PMS1003;15950;51.112;6.966;2023-03-18T06:12:25;009;006;
26720;PMS1003;15950;51.112;6.966;2023-03-18T06:15:25;006;006;
26720;PMS1003;15950;51.112;6.966;2023-03-18T06:18:25;005;003;
26720;PMS1003;15950;51.112;6.966;2023-03-18T06:21:25;008;007;
26720;PMS1003;15950;51.112;6.966;2023-03-18T06:24:25;007;006;
26720;PMS1003;15950;51.112;6.966;2023-03-18T06:27:25;005;004;
26720;PMS1003;15950;51.112;6.966;2023-03-18T06:30:25;006;005;
26720;PMS1003;15950;51.112;6.966;2023-03-18T06:33:25;005;003;
26720;PMS1003;15950;51.112;6.966;2023-03-18T06:36:25;004;004;
26720;PMS1003;15950;51.112;6.966;2023-03-18T06:39:25;007;006;
26720;PMS1003;15950;51.112;6.966;2023-03-18T06:42:25;006;004;
26720;PMS1003;15950;51.112;6.966;2023-03-18T06:45:25;007;005;
26720;PMS1003;15950;51.112;6.966;2023-03-18T06:48:25;007;005;
26720;PMS1003;15950;51.112;6.966;2023-03-18T06:51:25;007;005;
26720;PMS1003;15950;51.112;6.966;2023-03-18T06:54:25;005;003;
26720;PMS1003;15950;51.112;6.966;2023-03-18T06:57:25;003;002;
26720;PMS1003;15950;51.112;6.966;2023-03-18T07:00:25;005;003;
26720;PMS1003;15950;51.112;6.966;2023-03-18T07:03:25;004;003;
26720;PMS1003;15950;51.112;6.966;2023-03-18T07:06:25;009;008;
26720;PMS1003;15950;51.112;6.966;2023-03-18T07:09:25;005;003;
26720;PMS1003;15950;51.112;6.966;2023-03-18T07:12:25;007;005;
26720;PMS1003;15950;51.112;6.966;2023-03-18T07:15:25;007;006;
26720;PMS1003;15950;51.112;6.966;2023-03-18T07:18:25;006;004;
26720;PMS1003;15950;51.112;6.966;2023-03-18T07:21:25;009;006;
26720;PMS1003;15950;51.112;6.966;2023-03-18T07:24:25;005;004;
26720;PMS1003;15950;51.112;6.966;2023-03-18T07:27:25;007;005;
26720;PMS1003;15950;51.112;6.966;2023-03-18T07:30:25;006;005;
26720;PMS1003;15950;51.112;6.966;2023-03-18T07:33:25;007;006;
26720;PMS1003;15950;51.112;6.966;2023-03-18T07:36:25;005;003;
26720;PMS1003;15950;51.112;6.966;2023-03-18T07:39:25;006;005;
26720;PMS1003;15950;51.112;6.966;2023-03-18T07:42:25;009;007;
26720;PMS1003;15950;51.112;6.966;2023-03-18T07:45:25;006;004;
26720;PMS1003;15950;51.112;6.966;2023-03-18T07:48:25;010;007;
26720;PMS1003;15950;51.112;6.966;2023-03-18T07:51:25;008;006;
26720;PMS1003;15950;51.112;6.966;2023-03-18T07:54:25;008;006;
26720;PMS1003;15950;51.112;6.966;2023-03-18T07:57:25;006;004;
26720;PMS1003;15950;51.112;6.966;2023-03-18T08:00:25;006;005;
26720;PMS1003;15950;51.112;6.966;2023-03-18T08:03:25;006;004;
26720;PMS1003;15950;51.112;6.966;2023-03-18T08:06:25;008;006;
26720;PMS1003;15950;51.112;6.966;2023-03-18T08:09:25;006;004;
26720;PMS1003;15950;51.112;6.966;2023-03-18T08:12:25;005;003;
26720;PMS1003;15950;51.112;6.966;2023-03-18T08:15:25;007;005;
26720;PMS1003;15950;51.112;6.966;2023-03-18T08:18:25;003;002;
26720;PMS1003;15950;51.112;6.966;2023-03-18T08:21:25;004;003;
26720;PMS1003;15950;51.112;6.966;2023-03-18T08:24:25;005;003;
26720;PMS1003;15950;51.112;6.966;2023-03-18T08:27:25;006;004;
26720;PMS1003;15950;51.112;6.966;2023-03-18T08:30:25;007;005;
26720;PMS1003;15950;51.112;6.966;2023-03-18T08:33:25;004;003;
26720;PMS1003;15950;51.112;6.966;2023-03-18T08:36:25;004;003;
26720;PMS1003;15950;51.112;6.966;2023-03-18T08:39:25;004;003;
26720;PMS1003;15950;51.112;6.966;2023-03-18T08:42:24;005;003;
26720;PMS1003;15950;51.112;6.966;2023-03-18T08:45:25;005;003;
26720;PMS1003;15950;51.112;6.966;2023-03-18T08:48:25;003;002;
26720;PMS1003;15950;51.112;6.966;2023-03-18T08:51:25;003;002;
26720;PMS1003;15950;51.112;6.966;2023-03-18T08:54:25;005;003;
26720;PMS1003;15950;51.112;6.966;2023-03-18T08:57:25;004;003;
26720;PMS1003;15950;51.112;6.966;2023-03-18T09:00:25;003;002;
26720;PMS1003;15950;51.112;6.966;2023-03-18T09:03:24;003;002;
26720;PMS1003;15950;51.112;6.966;2023-03-18T09:06:24;002;001;
26720;PMS1003;15950;51.112;6.966;2023-03-18T09:09:25;002;001;
26720;PMS1003;15950;51.112;6.966;2023-03-18T09:12:24;002;001;
26720;PMS1003;15950;51.112;6.966;2023-03-18T09:15:25;002;001;
26720;PMS1003;15950;51.112;6.966;2023-03-18T09:18:24;003;002;
26720;PMS1003;15950;51.112;6.966;2023-03-18T09:21:24;000;000;
26720;PMS1003;15950;51.112;6.966;2023-03-18T09:24:24;003;002;
26720;PMS1003;15950;51.112;6.966;2023-03-18T09:27:25;005;003;
26720;PMS1003;15950;51.112;6.966;2023-03-18T09:30:24;002;001;
26720;PMS1003;15950;51.112;6.966;2023-03-18T09:33:24;005;004;
26720;PMS1003;15950;51.112;6.966;2023-03-18T09:36:25;003;003;
26720;PMS1003;15950;51.112;6.966;2023-03-18T09:39:25;001;001;
26720;PMS1003;15950;51.112;6.966;2023-03-18T09:46:11;005;003;
26720;PMS1003;15950;51.112;6.966;2023-03-18T09:57:25;001;001;
26720;PMS1003;15950;51.112;6.966;2023-03-18T10:06:24;002;002;
26720;PMS1003;15950;51.112;6.966;2023-03-18T10:39:25;001;001;
26720;PMS1003;15950;51.112;6.966;2023-03-18T10:42:25;002;001;
26720;PMS1003;15950;51.112;6.966;2023-03-18T10:45:26;000;000;
26720;PMS1003;15950;51.112;6.966;2023-03-18T10:54:29;002;002;
26720;PMS1003;15950;51.112;6.966;2023-03-18T10:57:24;003;002;
26720;PMS1003;15950;51.112;6.966;2023-03-18T11:00:33;002;001;
26720;PMS1003;15950;51.112;6.966;2023-03-18T11:03:29;003;002;
26720;PMS1003;15950;51.112;6.966;2023-03-18T11:12:25;000;000;
26720;PMS1003;15950;51.112;6.966;2023-03-18T11:15:24;002;001;
26720;PMS1003;15950;51.112;6.966;2023-03-18T11:18:25;003;002;
26720;PMS1003;15950;51.112;6.966;2023-03-18T11:21:25;000;000;
26720;PMS1003;15950;51.112;6.966;2023-03-18T11:24:25;002;001;
26720;PMS1003;15950;51.112;6.966;2023-03-18T11:27:26;001;001;
26720;PMS1003;15950;51.112;6.966;2023-03-18T11:30:26;000;000;
26720;PMS1003;15950;51.112;6.966;2023-03-18T11:33:28;001;001;
26720;PMS1003;15950;51.112;6.966;2023-03-18T11:36:25;002;001;
26720;PMS1003;15950;51.112;6.966;2023-03-18T11:39:25;001;001;
26720;PMS1003;15950;51.112;6.966;2023-03-18T11:42:24;001;001;
26720;PMS1003;15950;51.112;6.966;2023-03-18T11:48:28;000;000;
26720;PMS1003;15950;51.112;6.966;2023-03-18T11:58:15;000;000;
26720;PMS1003;15950;51.112;6.966;2023-03-18T12:00:28;000;000;
26720;PMS1003;15950;51.112;6.966;2023-03-18T12:06:25;000;000;
26720;PMS1003;15950;51.112;6.966;2023-03-18T12:45:25;001;001;
26720;PMS1003;15950;51.112;6.966;2023-03-18T12:48:28;000;000;
26720;PMS1003;15950;51.112;6.966;2023-03-18T12:51:25;000;000;
26720;PMS1003;15950;51.112;6.966;2023-03-18T13:21:26;002;001;
26720;PMS1003;15950;51.112;6.966;2023-03-18T13:30:29;000;000;
26720;PMS1003;15950;51.112;6.966;2023-03-18T13:39:28;000;000;
26720;PMS1003;15950;51.112;6.966;2023-03-18T13:42:28;000;000;
26720;PMS1003;15950;51.112;6.966;2023-03-18T13:54:27;000;000;
26720;PMS1003;15950;51.112;6.966;2023-03-18T14:00:29;000;000;
26720;PMS1003;15950;51.112;6.966;2023-03-18T14:15:28;000;000;
26720;PMS1003;15950;51.112;6.966;2023-03-18T14:18:24;000;000;
26720;PMS1003;15950;51.112;6.966;2023-03-18T14:21:33;000;000;
26720;PMS1003;15950;51.112;6.966;2023-03-18T14:24:24;000;000;
26720;PMS1003;15950;51.112;6.966;2023-03-18T14:27:24;000;000;
26720;PMS1003;15950;51.112;6.966;2023-03-18T14:36:39;000;000;
26720;PMS1003;15950;51.112;6.966;2023-03-18T14:48:28;000;000;
26720;PMS1003;15950;51.112;6.966;2023-03-18T14:51:25;000;000;
26720;PMS1003;15950;51.112;6.966;2023-03-18T14:54:24;000;000;
26720;PMS1003;15950;51.112;6.966;2023-03-18T14:57:24;000;000;
26720;PMS1003;15950;51.112;6.966;2023-03-18T15:00:24;000;000;
26720;PMS1003;15950;51.112;6.966;2023-03-18T15:03:26;002;002;
26720;PMS1003;15950;51.112;6.966;2023-03-18T15:06:25;000;000;
26720;PMS1003;15950;51.112;6.966;2023-03-18T15:09:25;000;000;
26720;PMS1003;15950;51.112;6.966;2023-03-18T15:12:25;000;000;
26720;PMS1003;15950;51.112;6.966;2023-03-18T15:15:24;002;001;
26720;PMS1003;15950;51.112;6.966;2023-03-18T15:18:26;000;000;
26720;PMS1003;15950;51.112;6.966;2023-03-18T15:24:25;003;002;
26720;PMS1003;15950;51.112;6.966;2023-03-18T15:27:24;000;000;
26720;PMS1003;15950;51.112;6.966;2023-03-18T15:30:26;000;000;
26720;PMS1003;15950;51.112;6.966;2023-03-18T15:36:24;000;000;
26720;PMS1003;15950;51.112;6.966;2023-03-18T15:42:24;000;000;
26720;PMS1003;15950;51.112;6.966;2023-03-18T15:45:25;000;000;
26720;PMS1003;15950;51.112;6.966;2023-03-18T15:51:27;001;001;
26720;PMS1003;15950;51.112;6.966;2023-03-18T15:54:28;000;000;
26720;PMS1003;15950;51.112;6.966;2023-03-18T15:57:29;000;000;
26720;PMS1003;15950;51.112;6.966;2023-03-18T16:00:25;000;000;
26720;PMS1003;15950;51.112;6.966;2023-03-18T16:03:25;000;000;
26720;PMS1003;15950;51.112;6.966;2023-03-18T16:06:24;001;001;
26720;PMS1003;15950;51.112;6.966;2023-03-18T16:09:24;002;001;
26720;PMS1003;15950;51.112;6.966;2023-03-18T16:12:24;000;000;
26720;PMS1003;15950;51.112;6.966;2023-03-18T16:15:24;000;000;
26720;PMS1003;15950;51.112;6.966;2023-03-18T16:18:24;000;000;
26720;PMS1003;15950;51.112;6.966;2023-03-18T16:21:24;000;000;
26720;PMS1003;15950;51.112;6.966;2023-03-18T16:24:24;000;000;
26720;PMS1003;15950;51.112;6.966;2023-03-18T16:27:29;000;000;
26720;PMS1003;15950;51.112;6.966;2023-03-18T16:30:26;000;000;
26720;PMS1003;15950;51.112;6.966;2023-03-18T16:33:24;000;000;
26720;PMS1003;15950;51.112;6.966;2023-03-18T16:36:26;000;000;
26720;PMS1003;15950;51.112;6.966;2023-03-18T16:39:25;000;000;
26720;PMS1003;15950;51.112;6.966;2023-03-18T16:42:24;000;000;
26720;PMS1003;15950;51.112;6.966;2023-03-18T16:45:28;000;000;
26720;PMS1003;15950;51.112;6.966;2023-03-18T16:48:24;000;000;
26720;PMS1003;15950;51.112;6.966;2023-03-18T16:51:24;000;000;
26720;PMS1003;15950;51.112;6.966;2023-03-18T16:54:25;000;000;
26720;PMS1003;15950;51.112;6.966;2023-03-18T16:57:24;001;001;
26720;PMS1003;15950;51.112;6.966;2023-03-18T17:00:25;001;001;
26720;PMS1003;15950;51.112;6.966;2023-03-18T17:03:24;000;000;
26720;PMS1003;15950;51.112;6.966;2023-03-18T17:06:24;000;000;
26720;PMS1003;15950;51.112;6.966;2023-03-18T17:09:25;000;000;
26720;PMS1003;15950;51.112;6.966;2023-03-18T17:12:24;000;000;
26720;PMS1003;15950;51.112;6.966;2023-03-18T17:15:28;000;000;
26720;PMS1003;15950;51.112;6.966;2023-03-18T17:18:24;000;000;
26720;PMS1003;15950;51.112;6.966;2023-03-18T17:21:24;000;000;
26720;PMS1003;15950;51.112;6.966;2023-03-18T17:24:24;000;000;
26720;PMS1003;15950;51.112;6.966;2023-03-18T17:27:26;000;000;
26720;PMS1003;15950;51.112;6.966;2023-03-18T17:30:29;000;000;
26720;PMS1003;15950;51.112;6.966;2023-03-18T17:33:25;000;000;
26720;PMS1003;15950;51.112;6.966;2023-03-18T17:36:24;000;000;
26720;PMS1003;15950;51.112;6.966;2023-03-18T17:39:24;000;000;
26720;PMS1003;15950;51.112;6.966;2023-03-18T17:42:28;000;000;
26720;PMS1003;15950;51.112;6.966;2023-03-18T17:48:26;000;000;
26720;PMS1003;15950;51.112;6.966;2023-03-18T17:51:24;000;000;
26720;PMS1003;15950;51.112;6.966;2023-03-18T17:54:24;000;000;
26720;PMS1003;15950;51.112;6.966;2023-03-18T17:57:24;000;000;
26720;PMS1003;15950;51.112;6.966;2023-03-18T18:00:24;000;000;
26720;PMS1003;15950;51.112;6.966;2023-03-18T18:03:25;003;002;
26720;PMS1003;15950;51.112;6.966;2023-03-18T18:06:26;000;000;
26720;PMS1003;15950;51.112;6.966;2023-03-18T18:09:24;003;002;
26720;PMS1003;15950;51.112;6.966;2023-03-18T18:12:24;002;001;
26720;PMS1003;15950;51.112;6.966;2023-03-18T18:15:24;002;002;
26720;PMS1003;15950;51.112;6.966;2023-03-18T18:18:25;004;003;
26720;PMS1003;15950;51.112;6.966;2023-03-18T18:21:24;003;002;
26720;PMS1003;15950;51.112;6.966;2023-03-18T18:24:25;003;002;
26720;PMS1003;15950;51.112;6.966;2023-03-18T18:27:24;008;007;
26720;PMS1003;15950;51.112;6.966;2023-03-18T18:30:24;012;008;
26720;PMS1003;15950;51.112;6.966;2023-03-18T18:33:24;019;013;
26720;PMS1003;15950;51.112;6.966;2023-03-18T18:36:24;012;009;
26720;PMS1003;15950;51.112;6.966;2023-03-18T18:39:24;012;008;
26720;PMS1003;15950;51.112;6.966;2023-03-18T18:42:24;007;006;
26720;PMS1003;15950;51.112;6.966;2023-03-18T18:45:24;003;002;
26720;PMS1003;15950;51.112;6.966;2023-03-18T18:51:24;003;003;
26720;PMS1003;15950;51.112;6.966;2023-03-18T18:54:24;005;003;
26720;PMS1003;15950;51.112;6.966;2023-03-18T18:57:25;002;001;
26720;PMS1003;15950;51.112;6.966;2023-03-18T19:00:24;000;000;
26720;PMS1003;15950;51.112;6.966;2023-03-18T19:03:27;002;002;
26720;PMS1003;15950;51.112;6.966;2023-03-18T19:06:26;002;002;
26720;PMS1003;15950;51.112;6.966;2023-03-18T19:09:24;000;000;
26720;PMS1003;15950;51.112;6.966;2023-03-18T19:12:24;000;000;
26720;PMS1003;15950;51.112;6.966;2023-03-18T19:15:28;000;000;
26720;PMS1003;15950;51.112;6.966;2023-03-18T19:18:25;001;001;
26720;PMS1003;15950;51.112;6.966;2023-03-18T19:21:24;000;000;
26720;PMS1003;15950;51.112;6.966;2023-03-18T19:27:25;000;000;
26720;PMS1003;15950;51.112;6.966;2023-03-18T19:30:24;003;002;
26720;PMS1003;15950;51.112;6.966;2023-03-18T19:33:24;002;001;
26720;PMS1003;15950;51.112;6.966;2023-03-18T19:36:46;002;002;
26720;PMS1003;15950;51.112;6.966;2023-03-18T19:39:24;003;002;
26720;PMS1003;15950;51.112;6.966;2023-03-18T19:42:24;003;002;
26720;PMS1003;15950;51.112;6.966;2023-03-18T19:45:27;002;001;
26720;PMS1003;15950;51.112;6.966;2023-03-18T19:48:24;009;006;
26720;PMS1003;15950;51.112;6.966;2023-03-18T19:51:24;004;004;
26720;PMS1003;15950;51.112;6.966;2023-03-18T19:57:25;005;003;
26720;PMS1003;15950;51.112;6.966;2023-03-18T20:00:24;003;002;
26720;PMS1003;15950;51.112;6.966;2023-03-18T20:03:24;007;005;
26720;PMS1003;15950;51.112;6.966;2023-03-18T20:06:24;006;004;
26720;PMS1003;15950;51.112;6.966;2023-03-18T20:09:24;005;003;
26720;PMS1003;15950;51.112;6.966;2023-03-18T20:12:28;006;005;
26720;PMS1003;15950;51.112;6.966;2023-03-18T20:15:24;003;002;
26720;PMS1003;15950;51.112;6.966;2023-03-18T20:18:24;002;001;
26720;PMS1003;15950;51.112;6.966;2023-03-18T20:21:26;003;002;
26720;PMS1003;15950;51.112;6.966;2023-03-18T20:24:26;005;004;
26720;PMS1003;15950;51.112;6.966;2023-03-18T20:27:24;007;007;
26720;PMS1003;15950;51.112;6.966;2023-03-18T20:30:26;004;003;
26720;PMS1003;15950;51.112;6.966;2023-03-18T20:33:24;003;003;
26720;PMS1003;15950;51.112;6.966;2023-03-18T20:36:24;003;002;
26720;PMS1003;15950;51.112;6.966;2023-03-18T20:39:24;005;004;
26720;PMS1003;15950;51.112;6.966;2023-03-18T20:42:24;003;002;
26720;PMS1003;15950;51.112;6.966;2023-03-18T20:45:24;003;002;
26720;PMS1003;15950;51.112;6.966;2023-03-18T20:48:24;005;003;
26720;PMS1003;15950;51.112;6.966;2023-03-18T20:54:28;004;003;
26720;PMS1003;15950;51.112;6.966;2023-03-18T20:57:27;004;004;
26720;PMS1003;15950;51.112;6.966;2023-03-18T21:00:25;003;002;
26720;PMS1003;15950;51.112;6.966;2023-03-18T21:03:25;006;004;
26720;PMS1003;15950;51.112;6.966;2023-03-18T21:06:24;003;002;
26720;PMS1003;15950;51.112;6.966;2023-03-18T21:09:32;006;004;
26720;PMS1003;15950;51.112;6.966;2023-03-18T21:12:24;007;005;
26720;PMS1003;15950;51.112;6.966;2023-03-18T21:15:26;004;004;
26720;PMS1003;15950;51.112;6.966;2023-03-18T21:18:24;003;002;
26720;PMS1003;15950;51.112;6.966;2023-03-18T21:21:27;006;005;
26720;PMS1003;15950;51.112;6.966;2023-03-18T21:24:25;003;002;
26720;PMS1003;15950;51.112;6.966;2023-03-18T21:27:25;005;003;
26720;PMS1003;15950;51.112;6.966;2023-03-18T21:30:24;006;006;
26720;PMS1003;15950;51.112;6.966;2023-03-18T21:33:25;006;004;
26720;PMS1003;15950;51.112;6.966;2023-03-18T21:36:24;010;007;
26720;PMS1003;15950;51.112;6.966;2023-03-18T21:39:24;004;003;
26720;PMS1003;15950;51.112;6.966;2023-03-18T21:42:25;003;002;
26720;PMS1003;15950;51.112;6.966;2023-03-18T21:45:24;003;002;
26720;PMS1003;15950;51.112;6.966;2023-03-18T21:48:24;004;003;
26720;PMS1003;15950;51.112;6.966;2023-03-18T21:54:24;002;001;
26720;PMS1003;15950;51.112;6.966;2023-03-18T21:57:24;006;005;
26720;PMS1003;15950;51.112;6.966;2023-03-18T22:00:24;003;002;
26720;PMS1003;15950;51.112;6.966;2023-03-18T22:03:26;003;002;
26720;PMS1003;15950;51.112;6.966;2023-03-18T22:06:24;003;002;
26720;PMS1003;15950;51.112;6.966;2023-03-18T22:09:24;002;001;
26720;PMS1003;15950;51.112;6.966;2023-03-18T22:12:26;002;001;
26720;PMS1003;15950;51.112;6.966;2023-03-18T22:15:32;002;001;
26720;PMS1003;15950;51.112;6.966;2023-03-18T22:18:24;003;002;
26720;PMS1003;15950;51.112;6.966;2023-03-18T22:21:25;000;000;
26720;PMS1003;15950;51.112;6.966;2023-03-18T22:24:24;003;002;
26720;PMS1003;15950;51.112;6.966;2023-03-18T22:27:28;003;003;
26720;PMS1003;15950;51.112;6.966;2023-03-18T22:30:24;005;003;
26720;PMS1003;15950;51.112;6.966;2023-03-18T22:33:25;003;003;
26720;PMS1003;15950;51.112;6.966;2023-03-18T22:36:24;005;004;
26720;PMS1003;15950;51.112;6.966;2023-03-18T22:39:24;006;004;
26720;PMS1003;15950;51.112;6.966;2023-03-18T22:42:24;007;005;
26720;PMS1003;15950;51.112;6.966;2023-03-18T22:45:25;006;004;
26720;PMS1003;15950;51.112;6.966;2023-03-18T22:48:24;010;008;
26720;PMS1003;15950;51.112;6.966;2023-03-18T22:51:28;005;003;
26720;PMS1003;15950;51.112;6.966;2023-03-18T22:54:24;005;003;
26720;PMS1003;15950;51.112;6.966;2023-03-18T22:57:24;002;001;
26720;PMS1003;15950;51.112;6.966;2023-03-18T23:03:25;001;001;